Wednesday, April 25, 2018, 5:06 AM EDT
Back to Local

KMMU, Morristown Municipal

Location: Morristown, NJ, United States Lat: 40.8
Local Time: 5:06 AM EDT ( 9:06 GMT) Lon: -74.417
Time Zone: US/Eastern Elev: 187 ft

Show me the last for .
Show Decoded

2018-04-25 04:35 METAR KMMU 250835Z AUTO 03004KT 3SM +DZ OVC004 10/10 A2999 RMK AO2 LTG DSNT S
                 P0002 =
2018-04-25 04:15 METAR KMMU 250815Z AUTO 05004KT 4SM +DZ OVC004 10/10 A3000 RMK AO2 P0001 =
2018-04-25 03:55 METAR KMMU 250755Z AUTO 05004KT 4SM RA OVC004 10/10 A3001 RMK AO2 =
2018-04-25 03:35 METAR KMMU 250735Z AUTO 04005KT 4SM +DZ OVC006 10/10 A3002 RMK AO2 P0001 =
2018-04-25 03:15 METAR KMMU 250715Z AUTO 05005KT 5SM -RA OVC006 10/10 A3003 RMK AO2 =
2018-04-25 02:55 METAR KMMU 250655Z AUTO 03005KT 4SM DZ OVC006 10/10 A3005 RMK AO2 =
2018-04-25 02:35 METAR KMMU 250635Z AUTO 04005KT 4SM +DZ OVC006 10/10 A3005 RMK AO2 LTG DSNT S
                 P0004 =
2018-04-25 02:15 METAR KMMU 250615Z AUTO 04004KT 5SM RA OVC006 10/10 A3006 RMK AO2 P0001 =
2018-04-25 01:55 METAR KMMU 250555Z AUTO 04004KT 7SM DZ OVC008 10/10 A3008 RMK AO2 =
2018-04-25 01:35 METAR KMMU 250535Z AUTO 03006KT 7SM DZ OVC010 10/10 A3009 RMK AO2 P0001 =
2018-04-25 01:15 METAR KMMU 250515Z AUTO 04004KT 7SM DZ OVC008 10/10 A3010 RMK AO2 P0001 =
2018-04-25 00:55 METAR KMMU 250455Z AUTO 05003KT 7SM -RA OVC008 11/10 A3012 RMK AO2 =
2018-04-25 00:35 METAR KMMU 250435Z AUTO 00000KT 7SM -RA OVC008 11/10 A3013 RMK AO2 P0004 =
2018-04-25 00:15 METAR KMMU 250415Z AUTO 05003KT 7SM RA OVC012 11/10 A3014 RMK AO2 P0002 =
2018-04-24 23:55 METAR KMMU 250355Z AUTO 04003KT 7SM RA OVC014 11/10 A3015 RMK AO2 P0001 =
2018-04-24 23:35 METAR KMMU 250335Z AUTO 06004KT 10SM RA OVC016 11/10 A3016 RMK AO2 P0003 =
2018-04-24 23:15 METAR KMMU 250315Z AUTO 00000KT 7SM -RA OVC018 11/10 A3017 RMK AO2 P0002 =
2018-04-24 22:55 METAR KMMU 250255Z AUTO 00000KT 10SM -RA OVC018 11/10 A3018 RMK AO2 =
2018-04-24 22:35 METAR KMMU 250235Z AUTO 09004KT 10SM -RA OVC020 11/09 A3019 RMK AO2 =
2018-04-24 22:15 METAR KMMU 250215Z AUTO 09003KT 10SM RA OVC020 12/08 A3020 RMK AO2 =
2018-04-24 21:45 METAR KMMU 250145Z 12005G15KT 10SM BKN022 BKN028 OVC040 13/07 A3021 =
2018-04-24 20:45 METAR KMMU 250045Z 15008G13KT 10SM SCT040 BKN050 13/05 A3022 =
2018-04-24 19:50 METAR KMMU 242350Z 14009KT 10SM BKN042 OVC050 13/06 A3022 =
2018-04-24 18:45 METAR KMMU 242245Z 14009G16KT 10SM SCT048 BKN065 14/07 A3022 =
2018-04-24 17:45 METAR KMMU 242145Z 18008G21KT 10SM BKN050 BKN070 15/05 A3024 =
2018-04-24 16:45 METAR KMMU 242045Z 16010G18KT 10SM SCT050 OVC250 16/05 A3025 =
2018-04-24 15:50 METAR KMMU 241950Z 16016G24KT 10SM SCT050 OVC250 17/05 A3026 =
2018-04-24 14:50 METAR KMMU 241850Z 16012G22KT 10SM SCT050 BKN250 17/05 A3029 =
2018-04-24 13:45 METAR KMMU 241745Z 15013G23KT 10SM SCT050 BKN250 18/04 A3031 =
2018-04-24 12:45 METAR KMMU 241645Z 16011G20KT 10SM SCT050 18/04 A3033 =
2018-04-24 11:45 METAR KMMU 241545Z 19014G19KT 10SM SCT050 17/04 A3036 =
2018-04-24 10:46 METAR KMMU 241446Z 19006KT 10SM SCT050 16/03 A3039 =
2018-04-24 10:45 METAR KMMU 241445Z 19006KT 10SM SCT050 16/03 A3039 =
2018-04-24 09:45 METAR KMMU 241345Z 14005KT 10SM FEW250 14/02 A3040 =
2018-04-24 08:45 METAR KMMU 241245Z 00000KT 10SM SCT250 10/04 A3042 =
2018-04-24 07:45 METAR KMMU 241145Z 00000KT 10SM SCT250 06/04 A3042 =
2018-04-24 06:45 METAR KMMU 241045Z 00000KT 10SM BCFG SCT250 01/01 A3041 =
2018-04-24 06:35 METAR KMMU 241035Z AUTO 00000KT M1/4SM FG BKN003 02/02 A3041 RMK AO2 =
2018-04-24 06:15 METAR KMMU 241015Z AUTO 00000KT 7SM CLR 01/01 A3041 RMK AO2 =
2018-04-24 05:55 METAR KMMU 240955Z AUTO 00000KT 7SM CLR 01/01 A3041 RMK AO2 =
2018-04-24 05:35 METAR KMMU 240935Z AUTO 00000KT 5SM BR CLR 01/01 A3040 RMK AO2 =
2018-04-24 05:15 METAR KMMU 240915Z AUTO 00000KT 10SM CLR 02/01 A3040 RMK AO2 =

Support USWX by starting your Amazon purchase here.